sensor_id;sensor_type;location;lat;lon;timestamp;pressure;altitude;pressure_sealevel;temperature;humidity
74921;BME280;63483;47.384;8.860;2023-04-16T00:01:25;94553.13;;;5.54;51.14
74921;BME280;63483;47.384;8.860;2023-04-16T00:03:51;94555.72;;;5.54;51.11
74921;BME280;63483;47.384;8.860;2023-04-16T00:06:16;94556.88;;;5.51;51.15
74921;BME280;63483;47.384;8.860;2023-04-16T00:08:41;94564.50;;;5.53;51.02
74921;BME280;63483;47.384;8.860;2023-04-16T00:11:07;94548.91;;;5.53;51.15
74921;BME280;63483;47.384;8.860;2023-04-16T00:13:33;94551.66;;;5.51;51.25
74921;BME280;63483;47.384;8.860;2023-04-16T00:15:58;94557.81;;;5.50;51.39
74921;BME280;63483;47.384;8.860;2023-04-16T00:18:24;94550.03;;;5.50;51.21
74921;BME280;63483;47.384;8.860;2023-04-16T00:20:50;94555.06;;;5.52;51.15
74921;BME280;63483;47.384;8.860;2023-04-16T00:23:15;94552.31;;;5.53;51.29
74921;BME280;63483;47.384;8.860;2023-04-16T00:25:41;94547.28;;;5.52;51.23
74921;BME280;63483;47.384;8.860;2023-04-16T00:28:07;94550.84;;;5.51;51.44
74921;BME280;63483;47.384;8.860;2023-04-16T00:30:33;94552.47;;;5.52;51.64
74921;BME280;63483;47.384;8.860;2023-04-16T00:32:58;94546.31;;;5.53;51.33
74921;BME280;63483;47.384;8.860;2023-04-16T00:35:24;94549.56;;;5.55;51.40
74921;BME280;63483;47.384;8.860;2023-04-16T00:37:49;94553.81;;;5.56;51.28
74921;BME280;63483;47.384;8.860;2023-04-16T00:40:15;94546.97;;;5.55;51.76
74921;BME280;63483;47.384;8.860;2023-04-16T00:42:40;94560.91;;;5.54;51.47
74921;BME280;63483;47.384;8.860;2023-04-16T00:45:06;94551.38;;;5.54;51.33
74921;BME280;63483;47.384;8.860;2023-04-16T00:47:32;94551.22;;;5.56;51.88
74921;BME280;63483;47.384;8.860;2023-04-16T00:49:58;94555.41;;;5.57;51.52
74921;BME280;63483;47.384;8.860;2023-04-16T00:52:24;94546.66;;;5.58;51.43
74921;BME280;63483;47.384;8.860;2023-04-16T00:54:50;94553.50;;;5.59;51.32
74921;BME280;63483;47.384;8.860;2023-04-16T00:57:16;94548.31;;;5.59;51.22
74921;BME280;63483;47.384;8.860;2023-04-16T00:59:44;94555.16;;;5.60;51.16
74921;BME280;63483;47.384;8.860;2023-04-16T01:02:10;94559.81;;;5.56;51.21
74921;BME280;63483;47.384;8.860;2023-04-16T01:04:36;94557.06;;;5.58;51.67
74921;BME280;63483;47.384;8.860;2023-04-16T01:07:02;94561.44;;;5.57;51.51
74921;BME280;63483;47.384;8.860;2023-04-16T01:09:27;94563.91;;;5.59;51.71
74921;BME280;63483;47.384;8.860;2023-04-16T01:11:52;94568.28;;;5.58;51.39
74921;BME280;63483;47.384;8.860;2023-04-16T01:14:17;94560.34;;;5.60;51.51
74921;BME280;63483;47.384;8.860;2023-04-16T01:16:43;94556.25;;;5.57;51.78
74921;BME280;63483;47.384;8.860;2023-04-16T01:19:08;94561.59;;;5.56;51.99
74921;BME280;63483;47.384;8.860;2023-04-16T01:21:33;94550.22;;;5.57;51.68
74921;BME280;63483;47.384;8.860;2023-04-16T01:24:03;94561.44;;;5.57;51.50
74921;BME280;63483;47.384;8.860;2023-04-16T01:26:29;94560.63;;;5.57;51.78
74921;BME280;63483;47.384;8.860;2023-04-16T01:28:55;94565.00;;;5.56;51.81
74921;BME280;63483;47.384;8.860;2023-04-16T01:31:20;94563.38;;;5.55;51.63
74921;BME280;63483;47.384;8.860;2023-04-16T01:33:45;94562.56;;;5.55;51.80
74921;BME280;63483;47.384;8.860;2023-04-16T01:36:10;94570.19;;;5.56;51.77
74921;BME280;63483;47.384;8.860;2023-04-16T01:38:36;94567.09;;;5.53;51.75
74921;BME280;63483;47.384;8.860;2023-04-16T01:41:01;94561.75;;;5.54;51.90
74921;BME280;63483;47.384;8.860;2023-04-16T01:43:27;94569.41;;;5.56;51.64
74921;BME280;63483;47.384;8.860;2023-04-16T01:45:58;94560.63;;;5.57;51.32
74921;BME280;63483;47.384;8.860;2023-04-16T01:48:33;94571.00;;;5.57;51.93
74921;BME280;63483;47.384;8.860;2023-04-16T01:50:58;94571.00;;;5.57;51.75
74921;BME280;63483;47.384;8.860;2023-04-16T01:53:24;94571.00;;;5.57;51.61
74921;BME280;63483;47.384;8.860;2023-04-16T01:55:49;94574.59;;;5.56;51.74
74921;BME280;63483;47.384;8.860;2023-04-16T01:58:15;94575.56;;;5.55;51.76
74921;BME280;63483;47.384;8.860;2023-04-16T02:00:40;94577.50;;;5.53;51.50
74921;BME280;63483;47.384;8.860;2023-04-16T02:03:05;94575.84;;;5.52;51.39
74921;BME280;63483;47.384;8.860;2023-04-16T02:05:31;94571.63;;;5.51;51.88
74921;BME280;63483;47.384;8.860;2023-04-16T02:07:56;94572.44;;;5.51;51.64
74921;BME280;63483;47.384;8.860;2023-04-16T02:10:21;94570.81;;;5.50;51.78
74921;BME280;63483;47.384;8.860;2023-04-16T02:12:47;94575.19;;;5.50;51.37
74921;BME280;63483;47.384;8.860;2023-04-16T02:15:13;94570.44;;;5.45;51.09
74921;BME280;63483;47.384;8.860;2023-04-16T02:17:39;94573.84;;;5.45;50.99
74921;BME280;63483;47.384;8.860;2023-04-16T02:20:05;94577.25;;;5.46;51.33
74921;BME280;63483;47.384;8.860;2023-04-16T02:22:32;94583.41;;;5.45;51.13
74921;BME280;63483;47.384;8.860;2023-04-16T02:24:57;94582.09;;;5.41;51.54
74921;BME280;63483;47.384;8.860;2023-04-16T02:27:23;94569.69;;;4.71;46.24
74921;BME280;63483;47.384;8.860;2023-04-16T02:29:48;94571.34;;;4.06;44.87
74921;BME280;63483;47.384;8.860;2023-04-16T02:32:13;94571.75;;;3.35;45.19
74921;BME280;63483;47.384;8.860;2023-04-16T02:34:39;94578.06;;;2.92;47.59
74921;BME280;63483;47.384;8.860;2023-04-16T02:37:04;94578.69;;;2.64;47.19
74921;BME280;63483;47.384;8.860;2023-04-16T02:39:30;94578.66;;;2.45;46.78
74921;BME280;63483;47.384;8.860;2023-04-16T02:41:55;94578.38;;;2.48;47.03
74921;BME280;63483;47.384;8.860;2023-04-16T02:44:22;94575.34;;;2.33;47.26
74921;BME280;63483;47.384;8.860;2023-04-16T02:46:47;94573.16;;;2.28;47.84
74921;BME280;63483;47.384;8.860;2023-04-16T02:49:12;94571.84;;;2.44;47.92
74921;BME280;63483;47.384;8.860;2023-04-16T02:51:38;94575.63;;;2.40;46.03
74921;BME280;63483;47.384;8.860;2023-04-16T02:54:03;94576.78;;;2.66;49.27
74921;BME280;63483;47.384;8.860;2023-04-16T02:56:28;94580.16;;;2.47;58.31
74921;BME280;63483;47.384;8.860;2023-04-16T02:58:53;94578.00;;;2.12;51.42
74921;BME280;63483;47.384;8.860;2023-04-16T03:01:19;94584.31;;;1.77;49.69
74921;BME280;63483;47.384;8.860;2023-04-16T03:03:44;94585.41;;;1.42;49.09
74921;BME280;63483;47.384;8.860;2023-04-16T03:06:10;94578.09;;;1.26;49.03
74921;BME280;63483;47.384;8.860;2023-04-16T03:08:35;94575.72;;;1.02;49.40
74921;BME280;63483;47.384;8.860;2023-04-16T03:11:01;94586.28;;;0.99;49.95
74921;BME280;63483;47.384;8.860;2023-04-16T03:13:26;94587.63;;;1.14;49.77
74921;BME280;63483;47.384;8.860;2023-04-16T03:15:51;94588.97;;;1.41;49.38
74921;BME280;63483;47.384;8.860;2023-04-16T03:18:17;94586.09;;;1.55;47.17
74921;BME280;63483;47.384;8.860;2023-04-16T03:20:42;94587.22;;;1.63;47.41
74921;BME280;63483;47.384;8.860;2023-04-16T03:23:07;94589.03;;;1.72;46.78
74921;BME280;63483;47.384;8.860;2023-04-16T03:25:33;94581.22;;;1.83;47.07
74921;BME280;63483;47.384;8.860;2023-04-16T03:27:58;94580.28;;;1.84;45.62
74921;BME280;63483;47.384;8.860;2023-04-16T03:30:23;94586.84;;;1.88;43.82
74921;BME280;63483;47.384;8.860;2023-04-16T03:32:49;94581.47;;;2.01;44.93
74921;BME280;63483;47.384;8.860;2023-04-16T03:35:14;94576.59;;;2.08;44.38
74921;BME280;63483;47.384;8.860;2023-04-16T03:37:40;94582.38;;;2.21;49.00
74921;BME280;63483;47.384;8.860;2023-04-16T03:40:05;94589.00;;;2.45;49.30
74921;BME280;63483;47.384;8.860;2023-04-16T03:42:31;94590.28;;;2.70;50.81
74921;BME280;63483;47.384;8.860;2023-04-16T03:44:56;94588.28;;;2.93;52.83
74921;BME280;63483;47.384;8.860;2023-04-16T03:47:22;94598.53;;;3.14;52.49
74921;BME280;63483;47.384;8.860;2023-04-16T03:49:47;94595.19;;;3.33;53.10
74921;BME280;63483;47.384;8.860;2023-04-16T03:52:12;94598.97;;;3.49;53.20
74921;BME280;63483;47.384;8.860;2023-04-16T03:54:38;94590.38;;;3.58;52.94
74921;BME280;63483;47.384;8.860;2023-04-16T03:57:03;94595.41;;;3.69;53.64
74921;BME280;63483;47.384;8.860;2023-04-16T03:59:29;94592.69;;;3.81;54.04
74921;BME280;63483;47.384;8.860;2023-04-16T04:01:54;94598.66;;;3.91;53.77
74921;BME280;63483;47.384;8.860;2023-04-16T04:04:19;94589.06;;;4.01;53.46
74921;BME280;63483;47.384;8.860;2023-04-16T04:06:45;94592.75;;;4.08;53.85
74921;BME280;63483;47.384;8.860;2023-04-16T04:09:13;94586.03;;;4.16;53.50
74921;BME280;63483;47.384;8.860;2023-04-16T04:11:40;94590.94;;;4.19;53.35
74921;BME280;63483;47.384;8.860;2023-04-16T04:14:06;94589.41;;;4.26;53.10
74921;BME280;63483;47.384;8.860;2023-04-16T04:16:31;94588.19;;;4.30;53.47
74921;BME280;63483;47.384;8.860;2023-04-16T04:18:57;94591.97;;;4.36;53.00
74921;BME280;63483;47.384;8.860;2023-04-16T04:21:24;94590.59;;;4.41;53.26
74921;BME280;63483;47.384;8.860;2023-04-16T04:23:50;94594.66;;;4.44;53.09
74921;BME280;63483;47.384;8.860;2023-04-16T04:26:15;94593.81;;;4.53;53.62
74921;BME280;63483;47.384;8.860;2023-04-16T04:28:41;94597.88;;;4.56;53.03
74921;BME280;63483;47.384;8.860;2023-04-16T04:31:06;94596.66;;;4.60;53.15
74921;BME280;63483;47.384;8.860;2023-04-16T04:33:32;94599.25;;;4.60;52.95
74921;BME280;63483;47.384;8.860;2023-04-16T04:35:57;94605.22;;;4.60;52.97
74921;BME280;63483;47.384;8.860;2023-04-16T04:38:22;94607.72;;;4.62;53.20
74921;BME280;63483;47.384;8.860;2023-04-16T04:40:50;94601.69;;;4.62;52.80
74921;BME280;63483;47.384;8.860;2023-04-16T04:43:15;94604.13;;;4.63;53.09
74921;BME280;63483;47.384;8.860;2023-04-16T04:45:41;94609.88;;;4.67;53.20
74921;BME280;63483;47.384;8.860;2023-04-16T04:48:06;94608.75;;;4.69;52.65
74921;BME280;63483;47.384;8.860;2023-04-16T04:50:32;94619.13;;;4.69;52.91
74921;BME280;63483;47.384;8.860;2023-04-16T04:52:57;94605.19;;;4.70;53.02
74921;BME280;63483;47.384;8.860;2023-04-16T04:55:22;94612.69;;;4.73;52.90
74921;BME280;63483;47.384;8.860;2023-04-16T04:57:48;94612.84;;;4.72;53.15
74921;BME280;63483;47.384;8.860;2023-04-16T05:00:14;94617.75;;;4.75;52.97
74921;BME280;63483;47.384;8.860;2023-04-16T05:02:39;94617.59;;;4.76;52.96
74921;BME280;63483;47.384;8.860;2023-04-16T05:05:05;94615.69;;;4.78;53.13
74921;BME280;63483;47.384;8.860;2023-04-16T05:07:31;94621.69;;;4.79;53.37
74921;BME280;63483;47.384;8.860;2023-04-16T05:09:56;94623.19;;;4.82;53.00
74921;BME280;63483;47.384;8.860;2023-04-16T05:12:21;94628.06;;;4.85;52.92
74921;BME280;63483;47.384;8.860;2023-04-16T05:14:47;94628.88;;;4.85;52.98
74921;BME280;63483;47.384;8.860;2023-04-16T05:17:12;94631.47;;;4.85;52.63
74921;BME280;63483;47.384;8.860;2023-04-16T05:19:37;94639.13;;;4.87;53.03
74921;BME280;63483;47.384;8.860;2023-04-16T05:22:03;94641.44;;;4.90;53.04
74921;BME280;63483;47.384;8.860;2023-04-16T05:24:28;94639.81;;;4.89;52.82
74921;BME280;63483;47.384;8.860;2023-04-16T05:26:53;94638.84;;;4.90;52.99
74921;BME280;63483;47.384;8.860;2023-04-16T05:29:19;94642.41;;;4.89;52.54
74921;BME280;63483;47.384;8.860;2023-04-16T05:31:44;94639.53;;;4.92;52.69
74921;BME280;63483;47.384;8.860;2023-04-16T05:34:09;94650.59;;;4.94;52.86
74921;BME280;63483;47.384;8.860;2023-04-16T05:36:35;94649.34;;;4.98;52.84
74921;BME280;63483;47.384;8.860;2023-04-16T05:39:00;94649.19;;;5.00;52.78
74921;BME280;63483;47.384;8.860;2023-04-16T05:41:26;94654.25;;;5.01;53.09
74921;BME280;63483;47.384;8.860;2023-04-16T05:43:51;94657.66;;;5.02;53.31
74921;BME280;63483;47.384;8.860;2023-04-16T05:46:16;94657.50;;;5.03;53.07
74921;BME280;63483;47.384;8.860;2023-04-16T05:48:42;94656.41;;;5.06;52.85
74921;BME280;63483;47.384;8.860;2023-04-16T05:51:07;94658.06;;;5.07;52.87
74921;BME280;63483;47.384;8.860;2023-04-16T05:53:32;94659.50;;;5.09;52.92
74921;BME280;63483;47.384;8.860;2023-04-16T05:55:58;94667.31;;;5.09;53.14
74921;BME280;63483;47.384;8.860;2023-04-16T05:58:23;94662.41;;;5.06;53.00
74921;BME280;63483;47.384;8.860;2023-04-16T06:00:48;94670.19;;;4.78;49.24
74921;BME280;63483;47.384;8.860;2023-04-16T06:03:14;94668.97;;;4.25;48.04
74921;BME280;63483;47.384;8.860;2023-04-16T06:05:39;94669.59;;;3.70;47.62
74921;BME280;63483;47.384;8.860;2023-04-16T06:08:05;94671.34;;;3.41;46.44
74921;BME280;63483;47.384;8.860;2023-04-16T06:10:30;94672.50;;;3.17;46.21
74921;BME280;63483;47.384;8.860;2023-04-16T06:12:55;94679.09;;;2.90;45.49
74921;BME280;63483;47.384;8.860;2023-04-16T06:15:21;94676.38;;;2.82;46.02
74921;BME280;63483;47.384;8.860;2023-04-16T06:17:46;94675.69;;;2.90;47.69
74921;BME280;63483;47.384;8.860;2023-04-16T06:20:11;94685.38;;;2.97;58.73
74921;BME280;63483;47.384;8.860;2023-04-16T06:22:37;94682.66;;;2.58;52.79
74921;BME280;63483;47.384;8.860;2023-04-16T06:25:02;94682.72;;;2.16;50.18
74921;BME280;63483;47.384;8.860;2023-04-16T06:27:29;94682.22;;;1.80;49.38
74921;BME280;63483;47.384;8.860;2023-04-16T06:29:55;94687.91;;;1.63;50.31
74921;BME280;63483;47.384;8.860;2023-04-16T06:32:21;94695.59;;;1.53;50.56
74921;BME280;63483;47.384;8.860;2023-04-16T06:34:46;94698.31;;;1.51;52.67
74921;BME280;63483;47.384;8.860;2023-04-16T06:37:11;94700.81;;;1.63;51.20
74921;BME280;63483;47.384;8.860;2023-04-16T06:39:37;94697.50;;;1.72;51.80
74921;BME280;63483;47.384;8.860;2023-04-16T06:42:03;94692.38;;;1.93;50.02
74921;BME280;63483;47.384;8.860;2023-04-16T06:44:28;94699.47;;;2.01;48.50
74921;BME280;63483;47.384;8.860;2023-04-16T06:46:53;94691.69;;;2.12;47.98
74921;BME280;63483;47.384;8.860;2023-04-16T06:49:19;94699.31;;;2.13;48.18
74921;BME280;63483;47.384;8.860;2023-04-16T06:51:44;94692.44;;;2.24;48.58
74921;BME280;63483;47.384;8.860;2023-04-16T06:54:09;94703.44;;;2.26;46.90
74921;BME280;63483;47.384;8.860;2023-04-16T06:56:35;94702.66;;;2.25;47.76
74921;BME280;63483;47.384;8.860;2023-04-16T06:59:01;94708.91;;;2.32;49.38
74921;BME280;63483;47.384;8.860;2023-04-16T07:01:27;94710.06;;;2.40;50.74
74921;BME280;63483;47.384;8.860;2023-04-16T07:03:53;94706.34;;;2.63;50.56
74921;BME280;63483;47.384;8.860;2023-04-16T07:06:18;94709.53;;;2.77;54.29
74921;BME280;63483;47.384;8.860;2023-04-16T07:08:44;94705.69;;;3.02;54.86
74921;BME280;63483;47.384;8.860;2023-04-16T07:11:09;94704.34;;;3.08;54.93
74921;BME280;63483;47.384;8.860;2023-04-16T07:13:34;94717.19;;;3.19;55.20
74921;BME280;63483;47.384;8.860;2023-04-16T07:16:00;94714.41;;;3.42;54.59
74921;BME280;63483;47.384;8.860;2023-04-16T07:18:25;94707.47;;;3.52;55.33
74921;BME280;63483;47.384;8.860;2023-04-16T07:20:51;94712.56;;;3.13;59.05
74921;BME280;63483;47.384;8.860;2023-04-16T07:23:16;94715.38;;;2.69;52.85
74921;BME280;63483;47.384;8.860;2023-04-16T07:25:41;94717.81;;;2.40;51.80
74921;BME280;63483;47.384;8.860;2023-04-16T07:28:07;94720.38;;;2.40;52.34
74921;BME280;63483;47.384;8.860;2023-04-16T07:30:32;94719.78;;;2.26;51.79
74921;BME280;63483;47.384;8.860;2023-04-16T07:33:03;94726.59;;;2.27;51.31
74921;BME280;63483;47.384;8.860;2023-04-16T07:35:29;94714.78;;;2.35;52.05
74921;BME280;63483;47.384;8.860;2023-04-16T07:37:54;94720.91;;;2.34;51.34
74921;BME280;63483;47.384;8.860;2023-04-16T07:40:20;94735.09;;;2.39;50.82
74921;BME280;63483;47.384;8.860;2023-04-16T07:42:45;94727.09;;;2.42;51.44
74921;BME280;63483;47.384;8.860;2023-04-16T07:45:10;94736.53;;;2.53;51.94
74921;BME280;63483;47.384;8.860;2023-04-16T07:47:36;94731.09;;;2.56;48.59
74921;BME280;63483;47.384;8.860;2023-04-16T07:50:01;94729.47;;;2.55;49.94
74921;BME280;63483;47.384;8.860;2023-04-16T07:52:27;94734.69;;;2.65;50.76
74921;BME280;63483;47.384;8.860;2023-04-16T07:54:52;94735.53;;;2.75;47.97
74921;BME280;63483;47.384;8.860;2023-04-16T07:57:17;94734.19;;;2.71;48.48
74921;BME280;63483;47.384;8.860;2023-04-16T07:59:43;94736.16;;;2.89;51.39
74921;BME280;63483;47.384;8.860;2023-04-16T08:02:11;94741.69;;;3.15;53.54
74921;BME280;63483;47.384;8.860;2023-04-16T08:04:39;94736.59;;;3.34;54.11
74921;BME280;63483;47.384;8.860;2023-04-16T08:07:05;94737.88;;;3.50;54.22
74921;BME280;63483;47.384;8.860;2023-04-16T08:09:30;94746.34;;;3.62;54.35
74921;BME280;63483;47.384;8.860;2023-04-16T08:11:56;94752.22;;;3.74;54.94
74921;BME280;63483;47.384;8.860;2023-04-16T08:14:21;94746.22;;;3.83;54.41
74921;BME280;63483;47.384;8.860;2023-04-16T08:16:47;94752.50;;;3.90;54.63
74921;BME280;63483;47.384;8.860;2023-04-16T08:19:12;94746.91;;;4.04;54.70
74921;BME280;63483;47.384;8.860;2023-04-16T08:21:37;94751.69;;;4.09;54.72
74921;BME280;63483;47.384;8.860;2023-04-16T08:24:03;94750.06;;;4.18;54.53
74921;BME280;63483;47.384;8.860;2023-04-16T08:26:28;94754.69;;;4.24;54.30
74921;BME280;63483;47.384;8.860;2023-04-16T08:28:53;94769.69;;;4.30;54.30
74921;BME280;63483;47.384;8.860;2023-04-16T08:31:19;94762.19;;;4.27;54.31
74921;BME280;63483;47.384;8.860;2023-04-16T08:33:45;94765.31;;;4.40;53.83
74921;BME280;63483;47.384;8.860;2023-04-16T08:36:10;94761.22;;;4.48;53.58
74921;BME280;63483;47.384;8.860;2023-04-16T08:38:35;94760.63;;;4.54;53.80
74921;BME280;63483;47.384;8.860;2023-04-16T08:41:04;94772.09;;;4.61;53.79
74921;BME280;63483;47.384;8.860;2023-04-16T08:43:36;94768.41;;;4.64;54.06
74921;BME280;63483;47.384;8.860;2023-04-16T08:46:04;94766.63;;;4.64;54.34
74921;BME280;63483;47.384;8.860;2023-04-16T08:48:32;94773.19;;;4.68;54.07
74921;BME280;63483;47.384;8.860;2023-04-16T08:50:59;94779.44;;;4.75;53.62
74921;BME280;63483;47.384;8.860;2023-04-16T08:53:31;94773.69;;;4.82;53.42
74921;BME280;63483;47.384;8.860;2023-04-16T08:56:02;94773.41;;;4.85;53.58
74921;BME280;63483;47.384;8.860;2023-04-16T08:58:30;94782.41;;;4.90;53.49
74921;BME280;63483;47.384;8.860;2023-04-16T09:00:59;94779.44;;;4.95;53.73
74921;BME280;63483;47.384;8.860;2023-04-16T09:03:27;94782.97;;;4.94;53.66
74921;BME280;63483;47.384;8.860;2023-04-16T09:05:53;94785.56;;;4.94;53.86
74921;BME280;63483;47.384;8.860;2023-04-16T09:08:21;94791.69;;;5.03;53.62
74921;BME280;63483;47.384;8.860;2023-04-16T09:10:47;94788.81;;;5.06;53.76
74921;BME280;63483;47.384;8.860;2023-04-16T09:13:13;94786.72;;;5.09;53.02
74921;BME280;63483;47.384;8.860;2023-04-16T09:15:41;94790.69;;;5.13;53.62
74921;BME280;63483;47.384;8.860;2023-04-16T09:18:09;94789.44;;;5.18;53.36
74921;BME280;63483;47.384;8.860;2023-04-16T09:20:36;94791.75;;;5.21;53.72
74921;BME280;63483;47.384;8.860;2023-04-16T09:23:01;94795.41;;;5.28;53.13
74921;BME280;63483;47.384;8.860;2023-04-16T09:25:27;94795.03;;;5.23;53.16
74921;BME280;63483;47.384;8.860;2023-04-16T09:27:56;94792.16;;;5.26;52.91
74921;BME280;63483;47.384;8.860;2023-04-16T09:30:24;94792.69;;;5.29;53.00
74921;BME280;63483;47.384;8.860;2023-04-16T09:32:51;94796.78;;;5.32;53.08
74921;BME280;63483;47.384;8.860;2023-04-16T09:35:18;94794.19;;;5.32;52.98
74921;BME280;63483;47.384;8.860;2023-04-16T09:37:54;94798.94;;;5.37;53.37
74921;BME280;63483;47.384;8.860;2023-04-16T09:40:23;94798.38;;;5.43;53.17
74921;BME280;63483;47.384;8.860;2023-04-16T09:42:49;94801.50;;;5.46;53.31
74921;BME280;63483;47.384;8.860;2023-04-16T09:45:15;94803.41;;;5.44;53.31
74921;BME280;63483;47.384;8.860;2023-04-16T09:47:41;94806.00;;;5.44;52.69
74921;BME280;63483;47.384;8.860;2023-04-16T09:50:09;94806.00;;;5.44;52.71
74921;BME280;63483;47.384;8.860;2023-04-16T09:52:38;94814.50;;;5.46;52.72
74921;BME280;63483;47.384;8.860;2023-04-16T09:55:03;94813.91;;;5.53;53.50
74921;BME280;63483;47.384;8.860;2023-04-16T09:57:29;94812.63;;;5.57;53.46
74921;BME280;63483;47.384;8.860;2023-04-16T10:00:01;94815.63;;;5.62;53.50
74921;BME280;63483;47.384;8.860;2023-04-16T10:02:30;94817.56;;;5.60;53.25
74921;BME280;63483;47.384;8.860;2023-04-16T10:04:55;94816.44;;;5.62;53.41
74921;BME280;63483;47.384;8.860;2023-04-16T10:07:22;94810.44;;;5.62;53.72
74921;BME280;63483;47.384;8.860;2023-04-16T10:09:51;94810.16;;;5.65;53.18
74921;BME280;63483;47.384;8.860;2023-04-16T10:12:19;94819.31;;;5.69;53.30
74921;BME280;63483;47.384;8.860;2023-04-16T10:14:44;94820.66;;;5.73;53.04
74921;BME280;63483;47.384;8.860;2023-04-16T10:17:10;94818.72;;;5.75;52.79
74921;BME280;63483;47.384;8.860;2023-04-16T10:19:36;94815.66;;;5.80;52.72
74921;BME280;63483;47.384;8.860;2023-04-16T10:22:01;94822.22;;;5.84;52.65
74921;BME280;63483;47.384;8.860;2023-04-16T10:24:28;94820.97;;;5.88;52.67
74921;BME280;63483;47.384;8.860;2023-04-16T10:26:53;94817.25;;;5.91;52.84
74921;BME280;63483;47.384;8.860;2023-04-16T10:29:20;94820.22;;;5.96;52.57
74921;BME280;63483;47.384;8.860;2023-04-16T10:31:46;94815.53;;;5.99;52.49
74921;BME280;63483;47.384;8.860;2023-04-16T10:34:13;94815.25;;;6.03;52.71
74921;BME280;63483;47.384;8.860;2023-04-16T10:36:39;94817.69;;;6.04;52.02
74921;BME280;63483;47.384;8.860;2023-04-16T10:39:09;94813.22;;;5.51;48.19
74921;BME280;63483;47.384;8.860;2023-04-16T10:41:36;94813.41;;;4.92;48.29
74921;BME280;63483;47.384;8.860;2023-04-16T10:44:06;94816.91;;;4.43;48.44
74921;BME280;63483;47.384;8.860;2023-04-16T10:46:37;94810.34;;;4.20;48.32
74921;BME280;63483;47.384;8.860;2023-04-16T10:49:13;94810.03;;;3.74;47.54
74921;BME280;63483;47.384;8.860;2023-04-16T10:51:39;94811.63;;;3.56;49.30
74921;BME280;63483;47.384;8.860;2023-04-16T10:56:34;94814.72;;;3.40;52.86
74921;BME280;63483;47.384;8.860;2023-04-16T10:59:00;94819.09;;;3.18;51.66
74921;BME280;63483;47.384;8.860;2023-04-16T11:01:33;94817.56;;;2.84;50.46
74921;BME280;63483;47.384;8.860;2023-04-16T11:04:00;94816.41;;;2.56;49.38
74921;BME280;63483;47.384;8.860;2023-04-16T11:06:27;94822.44;;;2.36;48.94
74921;BME280;63483;47.384;8.860;2023-04-16T11:08:53;94819.88;;;2.24;50.43
74921;BME280;63483;47.384;8.860;2023-04-16T11:11:19;94819.13;;;2.34;49.43
74921;BME280;63483;47.384;8.860;2023-04-16T11:13:45;94820.28;;;2.41;50.72
74921;BME280;63483;47.384;8.860;2023-04-16T11:16:12;94821.03;;;2.74;50.51
74921;BME280;63483;47.384;8.860;2023-04-16T11:18:38;94815.84;;;2.74;47.92
74921;BME280;63483;47.384;8.860;2023-04-16T11:21:07;94826.16;;;2.85;55.80
74921;BME280;63483;47.384;8.860;2023-04-16T11:26:27;94818.69;;;3.53;53.25
74921;BME280;63483;47.384;8.860;2023-04-16T11:28:54;94815.44;;;3.61;53.99
74921;BME280;63483;47.384;8.860;2023-04-16T11:31:22;94817.44;;;3.48;47.46
74921;BME280;63483;47.384;8.860;2023-04-16T11:33:48;94819.41;;;3.56;50.48
74921;BME280;63483;47.384;8.860;2023-04-16T11:36:13;94824.00;;;3.52;46.78
74921;BME280;63483;47.384;8.860;2023-04-16T11:38:39;94825.53;;;3.64;46.42
74921;BME280;63483;47.384;8.860;2023-04-16T11:41:06;94823.13;;;3.92;51.94
74921;BME280;63483;47.384;8.860;2023-04-16T11:43:31;94832.03;;;4.19;52.39
74921;BME280;63483;47.384;8.860;2023-04-16T11:45:58;94824.00;;;4.41;53.65
74921;BME280;63483;47.384;8.860;2023-04-16T11:48:24;94834.66;;;4.58;53.31
74921;BME280;63483;47.384;8.860;2023-04-16T11:50:56;94831.75;;;4.71;54.37
74921;BME280;63483;47.384;8.860;2023-04-16T11:53:22;94827.78;;;4.86;55.76
74921;BME280;63483;47.384;8.860;2023-04-16T11:55:47;94827.75;;;4.96;54.44
74921;BME280;63483;47.384;8.860;2023-04-16T11:58:13;94823.50;;;5.05;54.14
74921;BME280;63483;47.384;8.860;2023-04-16T12:00:42;94833.44;;;5.19;54.29
74921;BME280;63483;47.384;8.860;2023-04-16T12:03:07;94827.09;;;5.32;54.10
74921;BME280;63483;47.384;8.860;2023-04-16T12:05:34;94829.25;;;5.46;54.22
74921;BME280;63483;47.384;8.860;2023-04-16T12:08:03;94834.13;;;5.59;54.64
74921;BME280;63483;47.384;8.860;2023-04-16T12:10:31;94832.28;;;5.69;54.03
74921;BME280;63483;47.384;8.860;2023-04-16T12:13:13;94834.97;;;5.77;53.48
74921;BME280;63483;47.384;8.860;2023-04-16T12:15:50;94837.97;;;5.82;54.21
74921;BME280;63483;47.384;8.860;2023-04-16T12:18:17;94831.22;;;5.90;54.11
74921;BME280;63483;47.384;8.860;2023-04-16T12:20:43;94830.34;;;5.99;53.84
74921;BME280;63483;47.384;8.860;2023-04-16T12:23:20;94840.97;;;6.06;53.75
74921;BME280;63483;47.384;8.860;2023-04-16T12:25:46;94834.06;;;6.14;53.57
74921;BME280;63483;47.384;8.860;2023-04-16T12:28:14;94837.03;;;6.20;53.29
74921;BME280;63483;47.384;8.860;2023-04-16T12:30:50;94833.69;;;6.27;53.82
74921;BME280;63483;47.384;8.860;2023-04-16T12:33:16;94828.75;;;6.34;53.96
74921;BME280;63483;47.384;8.860;2023-04-16T12:35:42;94838.28;;;6.43;54.48
74921;BME280;63483;47.384;8.860;2023-04-16T12:38:09;94836.41;;;6.53;54.04
74921;BME280;63483;47.384;8.860;2023-04-16T12:40:34;94840.06;;;6.61;53.95
74921;BME280;63483;47.384;8.860;2023-04-16T12:43:00;94837.81;;;6.66;53.87
74921;BME280;63483;47.384;8.860;2023-04-16T12:45:26;94839.94;;;6.70;54.31
74921;BME280;63483;47.384;8.860;2023-04-16T12:47:51;94837.19;;;6.72;53.19
74921;BME280;63483;47.384;8.860;2023-04-16T12:50:17;94836.38;;;6.72;52.81
74921;BME280;63483;47.384;8.860;2023-04-16T12:52:42;94846.44;;;6.66;51.92
74921;BME280;63483;47.384;8.860;2023-04-16T12:55:08;94843.00;;;6.66;52.16
74921;BME280;63483;47.384;8.860;2023-04-16T12:57:33;94843.84;;;6.66;52.12
74921;BME280;63483;47.384;8.860;2023-04-16T12:59:59;94843.84;;;6.66;52.93
74921;BME280;63483;47.384;8.860;2023-04-16T13:02:25;94841.59;;;6.72;53.29
74921;BME280;63483;47.384;8.860;2023-04-16T13:04:51;94842.78;;;6.77;53.21
74921;BME280;63483;47.384;8.860;2023-04-16T13:07:17;94848.63;;;6.79;53.22
74921;BME280;63483;47.384;8.860;2023-04-16T13:09:42;94842.63;;;6.79;53.44